Time;durP1;ratioP1;P1;durP2;ratioP2;P2;SDS_P1;SDS_P2;PMS_P1;PMS_P2;Temp;Humidity;BMP_temperature;BMP_pressure;BME280_temperature;BME280_humidity;BME280_pressure;Samples;Min_cycle;Max_cycle;Signal;HPM_P1;HPM_P2
2022/06/15 00:01:55;;;;;;;4.43;1.80;;;17.90;56.70;;;;;;5051656;28;20029;-73
2022/06/15 00:04:20;;;;;;;5.30;2.25;;;17.90;56.80;;;;;;5020497;28;20082;-74
2022/06/15 00:06:46;;;;;;;6.97;2.60;;;17.90;56.90;;;;;;5048855;28;20111;-74
2022/06/15 00:09:12;;;;;;;5.78;2.55;;;17.90;56.90;;;;;;5027789;28;20025;-74
2022/06/15 00:11:40;;;;;;;7.63;2.22;;;17.90;56.90;;;;;;5048192;28;20021;-74
2022/06/15 00:14:11;;;;;;;5.15;2.08;;;17.90;57.00;;;;;;5040109;28;20439;-73
2022/06/15 00:16:37;;;;;;;6.43;1.85;;;17.80;57.10;;;;;;5050065;28;20025;-74
2022/06/15 00:19:04;;;;;;;6.40;2.20;;;17.80;57.00;;;;;;5033727;28;20043;-74
2022/06/15 00:21:30;;;;;;;8.52;2.20;;;17.80;57.20;;;;;;5043814;28;20041;-73
2022/06/15 00:23:57;;;;;;;5.55;2.50;;;17.80;57.10;;;;;;5050356;28;20048;-74
2022/06/15 00:26:23;;;;;;;5.20;2.08;;;17.80;57.10;;;;;;5048608;28;20025;-74
2022/06/15 00:28:51;;;;;;;5.82;2.15;;;17.70;57.10;;;;;;5037203;28;20108;-74
2022/06/15 00:31:18;;;;;;;5.20;2.35;;;17.70;57.30;;;;;;5025935;28;20057;-74
2022/06/15 00:33:44;;;;;;;6.30;2.35;;;17.70;57.30;;;;;;5046382;28;20115;-74
2022/06/15 00:36:13;;;;;;;6.00;2.45;;;17.70;57.40;;;;;;5038790;28;20112;-74
2022/06/15 00:38:41;;;;;;;5.20;2.30;;;17.70;57.60;;;;;;5044780;28;20025;-74
2022/06/15 00:41:10;;;;;;;4.90;2.28;;;17.60;57.60;;;;;;5043572;28;20039;-74
2022/06/15 00:43:41;;;;;;;5.93;2.35;;;17.60;57.90;;;;;;5041328;28;20382;-74
2022/06/15 00:46:17;;;;;;;6.18;2.15;;;17.60;57.90;;;;;;5049053;28;20040;-73
2022/06/15 00:48:44;;;;;;;5.32;2.33;;;17.50;58.00;;;;;;5038632;28;20072;-73
2022/06/15 00:51:11;;;;;;;6.60;2.03;;;17.50;58.00;;;;;;5040685;28;20021;-74
2022/06/15 00:53:37;;;;;;;5.32;2.22;;;17.50;58.00;;;;;;5043394;28;20025;-74
2022/06/15 00:56:03;;;;;;;7.65;2.47;;;17.50;58.00;;;;;;5047891;28;20090;-73
2022/06/15 00:58:31;;;;;;;6.30;1.92;;;17.50;58.00;;;;;;5043028;28;20398;-73
2022/06/15 01:00:56;;;;;;;6.93;2.58;;;17.40;58.10;;;;;;5042075;28;20021;-73
2022/06/15 01:03:22;;;;;;;6.78;2.45;;;17.40;58.10;;;;;;5041950;28;20040;-73
2022/06/15 01:06:06;;;;;;;7.38;2.20;;;17.40;58.20;;;;;;5034158;28;20026;-73
2022/06/15 01:08:43;;;;;;;5.63;2.20;;;17.40;58.20;;;;;;5034954;28;20033;-73
2022/06/15 01:11:33;;;;;;;6.70;2.50;;;17.40;58.20;;;;;;5036662;28;20022;-72
2022/06/15 01:14:20;;;;;;;4.45;2.35;;;17.40;58.20;;;;;;5035249;28;20337;-75
2022/06/15 01:17:19;;;;;;;5.53;2.38;;;17.30;58.30;;;;;;5039860;28;20031;-75
2022/06/15 01:19:57;;;;;;;6.28;2.13;;;17.30;58.50;;;;;;5037753;28;20033;-75
2022/06/15 01:22:36;;;;;;;6.35;2.45;;;17.30;58.60;;;;;;5030270;28;20033;-75
2022/06/15 01:25:30;;;;;;;5.60;2.10;;;17.30;58.60;;;;;;5040611;28;20033;-75
2022/06/15 01:28:19;;;;;;;7.10;2.33;;;17.20;58.60;;;;;;5022032;28;20393;-75
2022/06/15 01:31:33;;;;;;;7.15;2.50;;;17.20;58.80;;;;;;5038130;28;20343;-75
2022/06/15 01:33:58;;;;;;;5.10;2.28;;;17.20;58.90;;;;;;5043822;28;20220;-74
2022/06/15 01:36:48;;;;;;;4.97;2.25;;;17.10;58.90;;;;;;5040965;28;20065;-75
2022/06/15 01:39:21;;;;;;;8.10;2.42;;;17.10;59.10;;;;;;5036846;28;20026;-74
2022/06/15 01:42:03;;;;;;;6.22;2.40;;;17.10;59.20;;;;;;5049135;28;20033;-75
2022/06/15 01:45:07;;;;;;;6.68;2.53;;;17.10;59.20;;;;;;5040319;28;20025;-75
2022/06/15 01:47:35;;;;;;;5.50;2.30;;;17.00;59.20;;;;;;5039012;28;20048;-75
2022/06/15 01:50:11;;;;;;;5.40;2.28;;;17.00;59.20;;;;;;5050695;28;20029;-74
2022/06/15 01:52:56;;;;;;;6.38;2.45;;;17.00;59.30;;;;;;5039959;28;20040;-74
2022/06/15 01:55:28;;;;;;;6.65;2.03;;;17.00;59.40;;;;;;5025645;28;20065;-74
2022/06/15 01:57:59;;;;;;;6.70;2.60;;;17.00;59.40;;;;;;5046993;28;20036;-74
2022/06/15 02:00:26;;;;;;;4.70;2.28;;;17.00;59.40;;;;;;5056096;28;20032;-73
2022/06/15 02:03:20;;;;;;;8.45;2.33;;;16.90;59.30;;;;;;5054881;28;20025;-73
2022/06/15 02:06:00;;;;;;;8.73;2.60;;;16.90;59.30;;;;;;5053969;28;20021;-73
2022/06/15 02:08:49;;;;;;;6.03;2.22;;;16.90;59.30;;;;;;5052429;28;20159;-73
2022/06/15 02:11:21;;;;;;;7.15;2.28;;;16.90;59.40;;;;;;5047519;28;20037;-75
2022/06/15 02:13:54;;;;;;;6.03;2.40;;;16.90;59.50;;;;;;5051361;28;20048;-75
2022/06/15 02:16:28;;;;;;;5.43;2.20;;;16.90;59.60;;;;;;5054363;28;20032;-75
2022/06/15 02:18:56;;;;;;;11.18;2.80;;;16.90;59.60;;;;;;5026408;28;20026;-76
2022/06/15 02:21:24;;;;;;;6.38;2.50;;;16.90;59.70;;;;;;5047411;28;20338;-74
2022/06/15 02:23:55;;;;;;;7.50;2.38;;;16.80;59.70;;;;;;5027257;28;20036;-73
2022/06/15 02:26:24;;;;;;;7.72;2.85;;;16.80;59.60;;;;;;5054575;28;20111;-74
2022/06/15 02:28:54;;;;;;;7.13;2.30;;;16.80;59.60;;;;;;5049277;28;20167;-74
2022/06/15 02:31:20;;;;;;;5.47;2.15;;;16.80;59.70;;;;;;5050850;28;20032;-74
2022/06/15 02:33:51;;;;;;;7.93;2.55;;;16.80;59.70;;;;;;5031902;28;20030;-74
2022/06/15 02:36:17;;;;;;;;;;;16.70;59.80;;;;;;5054501;28;20107;-74
2022/06/15 02:38:45;;;;;;;5.15;2.13;;;16.70;59.80;;;;;;5046526;28;19913;-74
2022/06/15 02:41:12;;;;;;;5.93;2.40;;;16.70;59.90;;;;;;5047144;28;20029;-73
2022/06/15 02:43:41;;;;;;;7.57;2.70;;;16.70;59.90;;;;;;5049780;28;20095;-73
2022/06/15 02:46:09;;;;;;;10.52;2.70;;;16.60;60.00;;;;;;5038141;28;20022;-73
2022/06/15 02:48:37;;;;;;;6.45;2.38;;;16.60;60.20;;;;;;5039437;28;20437;-74
2022/06/15 02:51:12;;;;;;;7.05;2.30;;;16.60;60.20;;;;;;5046802;28;20409;-73
2022/06/15 02:53:41;;;;;;;5.97;2.30;;;16.60;60.20;;;;;;5045958;28;20021;-73
2022/06/15 02:56:11;;;;;;;7.20;2.75;;;16.60;60.30;;;;;;5045974;28;20025;-73
2022/06/15 02:58:40;;;;;;;6.10;2.25;;;16.60;60.30;;;;;;5026063;28;20033;-73
2022/06/15 03:01:06;;;;;;;7.53;2.40;;;16.60;60.20;;;;;;5037852;28;20053;-73
2022/06/15 03:03:35;;;;;;;8.02;2.40;;;16.60;60.30;;;;;;5038178;28;20168;-73
2022/06/15 03:06:23;;;;;;;6.80;2.53;;;16.60;60.40;;;;;;5048523;28;20037;-73
2022/06/15 03:08:50;;;;;;;6.57;2.67;;;16.60;60.50;;;;;;5036526;28;20182;-73
2022/06/15 03:11:28;;;;;;;6.25;2.20;;;16.50;60.50;;;;;;5040231;28;20052;-73
2022/06/15 03:13:59;;;;;;;4.78;2.35;;;16.50;60.50;;;;;;5049920;28;20049;-73
2022/06/15 03:16:25;;;;;;;4.70;2.17;;;16.50;60.60;;;;;;5045035;28;20029;-73
2022/06/15 03:18:52;;;;;;;5.88;2.17;;;16.50;60.70;;;;;;5038220;28;20144;-73
2022/06/15 03:21:18;;;;;;;6.68;2.33;;;16.50;60.70;;;;;;5037522;28;20377;-73
2022/06/15 03:23:44;;;;;;;6.05;2.20;;;16.50;60.70;;;;;;5035369;28;20473;-73
2022/06/15 03:26:12;;;;;;;7.32;2.42;;;16.40;60.60;;;;;;5037567;28;20394;-73
2022/06/15 03:28:38;;;;;;;7.05;2.63;;;16.40;60.70;;;;;;5054628;28;20151;-73
2022/06/15 03:31:08;;;;;;;6.80;2.17;;;16.40;60.70;;;;;;5038753;28;20112;-76
2022/06/15 03:33:34;;;;;;;7.22;2.58;;;16.40;60.80;;;;;;5047849;28;20101;-73
2022/06/15 03:36:04;;;;;;;6.75;2.50;;;16.40;60.80;;;;;;5044297;28;20014;-70
2022/06/15 03:38:31;;;;;;;6.47;2.30;;;16.40;60.80;;;;;;5038129;28;20025;-73
2022/06/15 03:41:08;;;;;;;7.47;2.75;;;16.40;60.90;;;;;;5033321;28;20033;-73
2022/06/15 03:43:33;;;;;;;8.45;2.70;;;16.40;61.00;;;;;;5038369;28;20371;-73
2022/06/15 03:45:59;;;;;;;7.00;2.70;;;16.40;61.10;;;;;;5041855;28;20052;-70
2022/06/15 03:48:27;;;;;;;6.45;2.40;;;16.30;61.00;;;;;;5035408;28;20033;-71
2022/06/15 03:50:53;;;;;;;7.13;2.60;;;16.30;61.10;;;;;;5050200;28;20388;-71
2022/06/15 03:53:20;;;;;;;7.03;2.35;;;16.30;61.20;;;;;;5038365;28;20082;-72
2022/06/15 03:55:46;;;;;;;6.85;2.30;;;16.30;61.30;;;;;;5053806;28;20021;-71
2022/06/15 03:58:18;;;;;;;6.13;2.20;;;16.30;61.30;;;;;;5048277;28;20036;-72
2022/06/15 04:00:47;;;;;;;9.00;2.70;;;16.30;61.50;;;;;;5041414;28;20021;-72
2022/06/15 04:03:15;;;;;;;6.15;2.40;;;16.30;61.50;;;;;;5038557;28;20393;-72
2022/06/15 04:05:59;;;;;;;6.70;2.42;;;16.30;61.60;;;;;;5055250;28;20438;-71
2022/06/15 04:08:38;;;;;;;6.00;2.50;;;16.30;61.60;;;;;;5056268;28;20025;-71
2022/06/15 04:11:58;;;;;;;6.55;2.70;;;16.30;61.70;;;;;;5047233;28;20021;-72
2022/06/15 04:14:10;;;;;;;8.50;2.63;;;16.30;61.80;;;;;;5039160;28;20083;-73
2022/06/15 04:16:36;;;;;;;4.70;2.25;;;16.40;61.80;;;;;;5048904;28;20021;-72
2022/06/15 04:19:07;;;;;;;6.05;2.15;;;16.40;61.70;;;;;;5034097;28;21313;-71
2022/06/15 04:21:34;;;;;;;6.68;2.35;;;16.40;61.80;;;;;;5036962;28;20032;-72
2022/06/15 04:24:01;;;;;;;5.32;2.30;;;16.40;61.90;;;;;;5042056;28;20068;-72
2022/06/15 04:26:28;;;;;;;5.30;2.20;;;16.40;61.90;;;;;;5025634;28;20028;-71
2022/06/15 04:28:53;;;;;;;5.90;2.50;;;16.50;62.00;;;;;;5052491;28;20029;-72
2022/06/15 04:31:23;;;;;;;6.00;2.33;;;16.50;62.00;;;;;;5022250;28;20113;-72
2022/06/15 04:33:48;;;;;;;5.95;2.63;;;16.50;61.90;;;;;;5038477;28;20108;-72
2022/06/15 04:36:15;;;;;;;5.78;2.30;;;16.60;61.90;;;;;;5046665;28;20047;-72
2022/06/15 04:38:45;;;;;;;7.50;2.78;;;16.60;61.90;;;;;;5044614;28;20017;-72
2022/06/15 04:41:11;;;;;;;8.80;2.55;;;16.60;61.90;;;;;;5051315;28;20111;-73
2022/06/15 04:43:37;;;;;;;6.50;2.30;;;16.60;61.90;;;;;;5046981;28;20078;-73
2022/06/15 04:46:09;;;;;;;8.43;2.65;;;16.70;62.00;;;;;;5043275;28;20028;-73
2022/06/15 04:48:35;;;;;;;7.07;2.40;;;16.70;61.90;;;;;;5062844;28;20100;-73
2022/06/15 04:51:15;;;;;;;7.30;2.45;;;16.80;61.90;;;;;;5041633;28;20505;-72
2022/06/15 04:53:45;;;;;;;8.20;2.53;;;16.80;61.90;;;;;;5041354;28;20021;-72
2022/06/15 04:56:12;;;;;;;6.70;2.38;;;16.90;61.90;;;;;;5048103;28;20124;-73
2022/06/15 04:58:40;;;;;;;10.05;2.33;;;16.90;61.70;;;;;;5029024;28;20045;-72
2022/06/15 05:01:07;;;;;;;6.97;2.30;;;16.90;61.70;;;;;;5035606;28;20078;-73
2022/06/15 05:03:36;;;;;;;8.32;2.33;;;17.00;61.80;;;;;;5051144;28;20047;-77
2022/06/15 05:06:28;;;;;;;8.90;2.60;;;17.00;61.80;;;;;;5028842;28;20047;-73
2022/06/15 05:08:55;;;;;;;4.03;2.03;;;17.20;61.40;;;;;;5062143;28;20445;-74
2022/06/15 05:11:20;;;;;;;5.38;2.13;;;17.30;61.00;;;;;;5043202;28;20033;-73
2022/06/15 05:13:49;;;;;;;6.15;2.15;;;18.00;59.80;;;;;;5051832;28;20037;-73
2022/06/15 05:16:15;;;;;;;6.47;2.22;;;18.60;58.80;;;;;;5045072;28;20517;-73
2022/06/15 05:18:41;;;;;;;5.75;2.60;;;18.90;58.10;;;;;;5041440;28;20037;-73
2022/06/15 05:21:13;;;;;;;6.90;2.05;;;19.00;58.00;;;;;;5036400;28;20946;-73
2022/06/15 05:23:39;;;;;;;4.97;2.00;;;19.10;58.10;;;;;;5041607;28;20478;-73
2022/06/15 05:26:11;;;;;;;6.85;2.67;;;19.10;58.20;;;;;;5047736;28;20049;-73
2022/06/15 05:28:41;;;;;;;7.55;2.47;;;19.10;58.20;;;;;;5057618;28;20013;-73
2022/06/15 05:31:14;;;;;;;8.45;2.80;;;19.10;57.90;;;;;;5043025;28;20016;-73
2022/06/15 05:33:40;;;;;;;6.75;2.28;;;19.10;57.70;;;;;;5047656;28;20018;-73
2022/06/15 05:36:12;;;;;;;6.65;2.25;;;19.20;57.80;;;;;;5042340;28;20040;-73
2022/06/15 05:38:39;;;;;;;5.93;2.30;;;19.20;57.70;;;;;;5035733;28;20025;-73
2022/06/15 05:41:06;;;;;;;9.82;2.30;;;19.20;57.70;;;;;;5024624;28;20025;-74
2022/06/15 05:43:35;;;;;;;7.25;2.28;;;19.20;57.60;;;;;;5049163;28;20518;-73
2022/06/15 05:46:26;;;;;;;5.05;1.90;;;19.30;57.30;;;;;;5042773;28;20434;-72
2022/06/15 05:48:53;;;;;;;6.35;2.10;;;19.40;57.10;;;;;;5033615;28;20025;-73
2022/06/15 05:51:21;;;;;;;5.90;2.10;;;19.50;57.00;;;;;;5041699;28;20053;-73
2022/06/15 05:53:47;;;;;;;5.55;2.30;;;19.50;57.10;;;;;;5048279;28;20481;-73
2022/06/15 05:56:14;;;;;;;4.80;1.75;;;19.60;57.20;;;;;;5042520;28;20052;-73
2022/06/15 05:58:39;;;;;;;4.57;1.65;;;19.60;57.00;;;;;;5033113;28;20040;-73
2022/06/15 06:01:17;;;;;;;7.47;2.20;;;19.70;56.80;;;;;;5045119;28;20021;-73
2022/06/15 06:03:43;;;;;;;6.43;2.40;;;19.80;56.50;;;;;;5050307;28;20029;-73
2022/06/15 06:06:10;;;;;;;6.75;2.10;;;19.90;56.30;;;;;;5039283;28;20346;-73
2022/06/15 06:08:36;;;;;;;5.93;2.13;;;20.10;55.90;;;;;;5024970;28;20175;-73
2022/06/15 06:11:02;;;;;;;5.50;1.90;;;20.10;55.50;;;;;;5020943;28;20853;-73
2022/06/15 06:13:28;;;;;;;7.72;2.10;;;20.30;55.20;;;;;;5037895;28;20056;-75
2022/06/15 06:15:58;;;;;;;7.95;2.40;;;20.40;54.80;;;;;;5036114;28;20455;-74
2022/06/15 06:18:24;;;;;;;6.47;2.22;;;20.40;54.40;;;;;;5028432;28;20335;-73
2022/06/15 06:20:50;;;;;;;4.15;1.80;;;20.60;54.20;;;;;;5033250;28;20033;-72
2022/06/15 06:23:16;;;;;;;5.03;2.10;;;20.60;54.00;;;;;;5034688;28;20102;-73
2022/06/15 06:25:43;;;;;;;6.70;2.53;;;20.70;53.70;;;;;;5031984;28;20113;-73
2022/06/15 06:28:30;;;;;;;5.20;2.03;;;20.80;53.50;;;;;;5038672;28;20389;-72
2022/06/15 06:30:58;;;;;;;6.50;2.33;;;21.00;53.30;;;;;;5021755;28;20059;-73
2022/06/15 06:33:25;;;;;;;5.78;2.10;;;21.10;53.10;;;;;;5034801;28;20030;-72
2022/06/15 06:35:51;;;;;;;7.30;2.00;;;21.20;52.70;;;;;;5020294;28;20095;-73
2022/06/15 06:38:17;;;;;;;4.10;1.83;;;21.40;52.40;;;;;;5050001;28;20060;-74
2022/06/15 06:40:43;;;;;;;6.90;1.65;;;21.50;52.20;;;;;;5053821;28;20031;-72
2022/06/15 06:43:08;;;;;;;7.25;2.00;;;21.60;52.20;;;;;;5051098;28;20373;-72
2022/06/15 06:45:34;;;;;;;5.05;1.73;;;21.70;52.00;;;;;;5039533;28;20033;-73
2022/06/15 06:48:00;;;;;;;9.15;2.03;;;21.90;51.70;;;;;;5036717;28;20040;-70
2022/06/15 06:50:27;;;;;;;4.60;1.83;;;22.00;51.20;;;;;;5039118;28;20032;-71
2022/06/15 06:52:53;;;;;;;4.88;1.73;;;22.10;51.40;;;;;;5052553;28;20025;-70
2022/06/15 06:55:24;;;;;;;4.53;1.98;;;22.30;50.60;;;;;;5054746;28;20467;-71
2022/06/15 06:57:57;;;;;;;7.45;2.03;;;22.40;50.30;;;;;;5054122;28;20175;-71
2022/06/15 07:00:23;;;;;;;7.97;2.00;;;22.50;49.90;;;;;;5053195;28;20075;-71
2022/06/15 07:02:51;;;;;;;5.93;1.80;;;22.70;49.70;;;;;;5042421;28;20464;-71
2022/06/15 07:05:17;;;;;;;7.43;2.70;;;22.80;49.40;;;;;;5057422;28;20056;-71
2022/06/15 07:07:43;;;;;;;5.30;1.90;;;23.00;49.20;;;;;;5054651;28;20029;-71
2022/06/15 07:10:09;;;;;;;4.22;1.73;;;23.10;48.90;;;;;;5055721;28;20173;-71
2022/06/15 07:12:36;;;;;;;7.50;2.00;;;23.20;48.80;;;;;;5052862;28;20072;-71
2022/06/15 07:15:04;;;;;;;4.57;1.63;;;23.30;48.80;;;;;;5055778;28;20508;-71
2022/06/15 07:17:29;;;;;;;6.32;1.80;;;23.50;48.70;;;;;;5054813;28;20064;-71
2022/06/15 07:19:55;;;;;;;7.30;1.98;;;23.70;48.60;;;;;;5046723;28;20040;-71
2022/06/15 07:22:22;;;;;;;5.50;2.03;;;23.80;48.40;;;;;;5049553;28;20388;-71
2022/06/15 07:24:48;;;;;;;5.65;1.80;;;23.90;48.00;;;;;;5051904;28;20047;-72
2022/06/15 07:27:15;;;;;;;5.97;1.75;;;24.00;47.60;;;;;;5041743;28;20027;-71
2022/06/15 07:29:42;;;;;;;4.35;1.70;;;24.20;47.50;;;;;;5025346;28;20060;-71
2022/06/15 07:32:08;;;;;;;4.47;1.75;;;24.30;47.40;;;;;;5055294;28;20041;-71
2022/06/15 07:34:34;;;;;;;7.00;1.88;;;24.40;46.90;;;;;;5023640;28;20036;-72
2022/06/15 07:37:00;;;;;;;4.53;1.70;;;24.50;46.40;;;;;;5056306;28;20035;-71
2022/06/15 07:39:27;;;;;;;6.05;1.63;;;24.50;46.10;;;;;;5048304;28;20029;-71
2022/06/15 07:41:55;;;;;;;5.18;1.80;;;24.70;45.70;;;;;;5056549;28;20033;-71
2022/06/15 07:44:22;;;;;;;5.47;1.85;;;24.80;45.20;;;;;;5046918;28;20383;-71
2022/06/15 07:46:48;;;;;;;6.50;1.65;;;24.90;45.00;;;;;;5055495;28;20366;-72
2022/06/15 07:52:05;;;;;;;6.70;1.80;;;25.00;44.10;;;;;;5053475;28;20029;-72
2022/06/15 07:54:30;;;;;;;5.63;1.60;;;25.10;44.00;;;;;;5045873;28;20044;-72
2022/06/15 07:56:57;;;;;;;5.28;1.63;;;25.10;43.60;;;;;;5053219;28;20028;-72
2022/06/15 07:59:23;;;;;;;4.35;1.75;;;25.30;43.20;;;;;;5052867;28;20036;-72
2022/06/15 08:01:50;;;;;;;4.60;1.63;;;25.40;42.90;;;;;;5038246;28;20025;-71
2022/06/15 08:04:16;;;;;;;4.90;1.60;;;25.50;42.90;;;;;;5036457;28;20119;-72
2022/06/15 08:06:45;;;;;;;6.43;1.90;;;25.50;42.60;;;;;;5054891;28;20021;-72
2022/06/15 08:09:13;;;;;;;4.18;1.52;;;25.70;42.40;;;;;;5050946;28;20040;-71
2022/06/15 08:12:11;;;;;;;7.35;2.20;;;25.80;42.30;;;;;;5042094;28;20072;-71
2022/06/15 08:14:26;;;;;;;4.60;1.38;;;25.80;41.80;;;;;;5042341;28;20045;-71
2022/06/15 08:16:51;;;;;;;4.63;1.50;;;25.90;41.80;;;;;;5051701;28;20037;-71
2022/06/15 08:19:17;;;;;;;5.05;1.65;;;25.90;41.80;;;;;;5028648;28;20041;-71
2022/06/15 08:21:43;;;;;;;5.60;1.70;;;26.00;41.70;;;;;;5047691;28;20044;-71
2022/06/15 08:24:09;;;;;;;4.90;1.40;;;26.10;41.50;;;;;;5051075;28;20075;-71
2022/06/15 08:26:37;;;;;;;5.85;1.67;;;26.30;41.70;;;;;;5050381;28;20029;-71
2022/06/15 08:29:07;;;;;;;4.85;1.83;;;26.30;41.30;;;;;;5051044;28;20017;-71
2022/06/15 08:31:33;;;;;;;6.18;1.55;;;26.30;40.60;;;;;;5046067;28;20029;-71
2022/06/15 08:33:59;;;;;;;4.75;1.58;;;26.40;40.50;;;;;;5036469;28;20029;-72
2022/06/15 08:36:24;;;;;;;7.10;1.83;;;26.50;40.50;;;;;;5042913;28;20045;-71
2022/06/15 08:38:51;;;;;;;5.22;1.42;;;26.50;40.60;;;;;;5037474;28;20108;-72
2022/06/15 08:42:01;;;;;;;5.20;1.85;;;26.60;40.80;;;;;;5043144;28;20029;-73
2022/06/15 08:44:34;;;;;;;4.05;1.60;;;26.80;40.60;;;;;;4999374;28;20038;-71
2022/06/15 08:47:28;;;;;;;4.45;1.65;;;26.80;40.50;;;;;;5015364;28;20072;-74
2022/06/15 08:50:06;;;;;;;6.10;1.80;;;26.80;40.50;;;;;;5003020;28;20133;-72
2022/06/15 08:52:40;;;;;;;6.05;1.80;;;26.90;40.40;;;;;;5014476;28;20115;-74
2022/06/15 08:55:37;;;;;;;5.53;1.58;;;27.00;40.20;;;;;;4996808;28;20034;-74
2022/06/15 08:58:38;;;;;;;4.93;1.50;;;27.10;40.10;;;;;;4996573;28;20046;-74
2022/06/15 09:01:36;;;;;;;4.68;1.98;;;27.20;40.20;;;;;;5017886;28;20037;-74
2022/06/15 09:04:21;;;;;;;6.38;2.03;;;27.30;40.00;;;;;;5007345;28;20068;-72
2022/06/15 09:07:06;;;;;;;4.55;1.90;;;27.30;40.00;;;;;;5001144;28;20049;-72
2022/06/15 09:10:21;;;;;;;4.78;1.60;;;27.40;39.70;;;;;;5013553;28;20042;-72
2022/06/15 09:13:00;;;;;;;5.00;1.92;;;27.40;39.90;;;;;;4972171;28;20050;-73
2022/06/15 09:15:29;;;;;;;7.22;1.65;;;27.40;40.00;;;;;;4961634;28;20161;-72
2022/06/15 09:17:58;;;;;;;4.63;1.52;;;27.50;39.80;;;;;;4969914;28;20070;-72
2022/06/15 09:20:35;;;;;;;4.60;1.15;;;27.60;39.70;;;;;;4972925;28;20436;-72
2022/06/15 09:23:27;;;;;;;3.45;1.58;;;27.80;40.40;;;;;;4972764;28;20035;-72
2022/06/15 09:25:58;;;;;;;5.28;1.80;;;27.90;39.40;;;;;;4973115;28;20467;-72
2022/06/15 09:28:34;;;;;;;6.35;1.95;;;28.00;39.40;;;;;;4982260;28;20027;-72
2022/06/15 09:31:06;;;;;;;5.38;1.55;;;28.00;39.10;;;;;;4970404;28;20380;-71
2022/06/15 09:33:45;;;;;;;5.63;1.98;;;28.10;38.80;;;;;;4955036;28;20034;-72
2022/06/15 09:36:19;;;;;;;2.80;1.30;;;28.20;38.60;;;;;;4955273;28;20053;-72
2022/06/15 09:38:45;;;;;;;4.50;1.50;;;28.20;38.60;;;;;;4956614;28;20031;-72
2022/06/15 09:41:41;;;;;;;6.07;1.73;;;28.30;38.40;;;;;;4969263;28;20471;-72
2022/06/15 09:44:29;;;;;;;5.30;1.85;;;28.20;37.70;;;;;;5021308;28;20045;-72
2022/06/15 09:47:04;;;;;;;5.82;1.70;;;28.20;38.00;;;;;;5031219;28;20025;-73
2022/06/15 09:50:06;;;;;;;7.72;1.80;;;28.30;37.60;;;;;;5038111;28;20030;-72
2022/06/15 09:52:57;;;;;;;6.22;1.90;;;28.30;37.50;;;;;;5031836;28;20107;-72
2022/06/15 09:55:37;;;;;;;4.93;1.50;;;28.40;37.30;;;;;;5036960;28;20033;-73
2022/06/15 09:58:07;;;;;;;8.05;1.88;;;28.50;37.40;;;;;;5035706;28;20060;-72
2022/06/15 10:00:36;;;;;;;3.90;1.60;;;28.50;37.20;;;;;;5034793;28;20581;-73
2022/06/15 10:03:06;;;;;;;9.07;2.08;;;28.60;37.40;;;;;;5018537;28;20021;-72
2022/06/15 10:05:39;;;;;;;4.27;1.30;;;28.60;37.20;;;;;;5039257;28;20065;-72
2022/06/15 10:08:11;;;;;;;3.55;1.42;;;28.60;37.20;;;;;;5033822;28;20292;-73
2022/06/15 10:10:50;;;;;;;6.22;1.65;;;28.60;37.50;;;;;;5019768;28;20413;-73
2022/06/15 10:13:19;;;;;;;3.40;1.40;;;28.70;37.10;;;;;;5016898;28;20041;-74
2022/06/15 10:15:44;;;;;;;3.70;1.50;;;28.80;37.00;;;;;;5021430;28;20030;-73
2022/06/15 10:18:43;;;;;;;4.68;1.52;;;28.80;36.90;;;;;;5041879;28;20473;-73
2022/06/15 10:21:24;;;;;;;5.13;1.90;;;28.90;37.00;;;;;;5049308;28;20025;-71
2022/06/15 10:23:52;;;;;;;4.32;1.50;;;28.90;36.60;;;;;;5056899;28;20468;-72
2022/06/15 10:26:40;;;;;;;4.15;1.33;;;29.00;37.00;;;;;;5051756;28;20044;-73
2022/06/15 10:29:29;;;;;;;4.80;1.73;;;29.00;36.80;;;;;;5047352;28;20037;-70
2022/06/15 10:32:10;;;;;;;5.25;1.38;;;29.00;36.80;;;;;;5051656;28;20037;-72
2022/06/15 10:34:49;;;;;;;;;;;29.00;36.80;;;;;;5021330;28;20037;-70
2022/06/15 10:37:26;;;;;;;5.00;1.42;;;29.00;37.00;;;;;;5048384;28;19912;-72
2022/06/15 10:39:55;;;;;;;3.80;1.50;;;29.10;37.00;;;;;;5043640;28;20335;-71
2022/06/15 10:42:42;;;;;;;6.28;1.90;;;29.20;36.80;;;;;;5035612;28;20040;-70
2022/06/15 10:45:22;;;;;;;5.55;1.58;;;29.20;36.20;;;;;;5055788;28;20048;-70
2022/06/15 10:48:06;;;;;;;5.28;1.52;;;29.20;36.40;;;;;;5050710;28;20060;-69
2022/06/15 10:50:54;;;;;;;6.07;1.52;;;29.20;36.20;;;;;;5046951;28;20041;-70
2022/06/15 10:53:48;;;;;;;5.65;1.92;;;29.10;36.20;;;;;;5007346;28;20128;-70
2022/06/15 11:02:23;;;;;;;7.07;1.73;;;29.10;36.70;;;;;;5040953;28;20044;-70
2022/06/15 11:04:49;;;;;;;3.45;1.38;;;29.10;36.00;;;;;;5045005;28;20044;-70
2022/06/15 11:07:24;;;;;;;3.92;1.38;;;29.20;36.20;;;;;;5053147;28;20131;-70
2022/06/15 11:09:55;;;;;;;5.00;1.52;;;29.20;35.90;;;;;;5056979;28;20409;-69
2022/06/15 11:12:34;;;;;;;3.42;1.27;;;29.20;35.60;;;;;;5048492;28;20055;-69
2022/06/15 11:15:25;;;;;;;3.88;1.30;;;29.30;36.60;;;;;;5051938;28;20095;-71
2022/06/15 11:18:01;;;;;;;2.72;1.13;;;29.40;35.80;;;;;;5036789;28;20459;-72
2022/06/15 11:20:46;;;;;;;4.57;1.52;;;29.40;35.80;;;;;;5043306;28;20037;-71
2022/06/15 11:23:22;;;;;;;4.13;1.50;;;29.40;35.70;;;;;;5048307;28;20106;-69
2022/06/15 11:26:51;;;;;;;3.60;1.52;;;29.50;35.70;;;;;;5035569;28;20056;-71
2022/06/15 11:28:53;;;;;;;4.00;1.40;;;29.50;35.60;;;;;;5042618;28;20033;-72
2022/06/15 11:31:21;;;;;;;3.83;1.50;;;29.40;35.30;;;;;;5049912;28;20410;-72
2022/06/15 11:33:57;;;;;;;7.25;1.70;;;29.40;35.20;;;;;;5041598;28;20030;-72
2022/06/15 11:36:40;;;;;;;3.13;1.60;;;29.40;35.20;;;;;;5047137;28;20037;-70
2022/06/15 11:39:26;;;;;;;4.30;1.50;;;29.30;35.40;;;;;;5053612;28;20021;-69
2022/06/15 11:41:55;;;;;;;4.68;1.40;;;29.40;35.90;;;;;;5056747;28;20104;-69
2022/06/15 11:44:22;;;;;;;2.90;1.45;;;29.40;35.40;;;;;;5034365;28;20075;-70
2022/06/15 11:47:25;;;;;;;4.80;1.42;;;29.40;35.70;;;;;;5047627;28;20030;-70
2022/06/15 11:50:15;;;;;;;3.78;1.55;;;29.40;35.10;;;;;;5055550;28;20342;-70
2022/06/15 11:52:41;;;;;;;6.13;2.00;;;29.30;35.20;;;;;;5050862;28;20135;-70
2022/06/15 11:55:20;;;;;;;4.90;1.63;;;29.20;35.40;;;;;;5056657;28;20055;-70
2022/06/15 11:58:05;;;;;;;3.67;1.30;;;29.00;35.30;;;;;;5046865;28;20053;-70
2022/06/15 12:00:39;;;;;;;6.20;1.55;;;29.00;35.30;;;;;;5053042;28;20033;-70
2022/06/15 12:03:35;;;;;;;4.35;1.50;;;28.90;35.30;;;;;;5043873;28;20051;-70
2022/06/15 12:06:27;;;;;;;3.33;1.17;;;28.90;35.60;;;;;;5053074;28;20025;-70
2022/06/15 12:09:02;;;;;;;2.92;1.10;;;28.80;35.80;;;;;;5013487;28;20050;-70
2022/06/15 12:14:53;;;;;;;3.42;1.50;;;28.80;35.50;;;;;;5051415;28;20041;-71
2022/06/15 12:17:25;;;;;;;4.53;1.55;;;28.60;35.60;;;;;;5044467;28;20462;-71
2022/06/15 12:20:02;;;;;;;10.80;1.75;;;28.50;35.80;;;;;;5049033;28;20053;-70
2022/06/15 12:22:55;;;;;;;6.28;1.80;;;28.40;35.90;;;;;;5028645;28;20029;-68
2022/06/15 12:25:28;;;;;;;6.55;1.70;;;28.30;35.90;;;;;;5026963;28;20071;-69
2022/06/15 12:28:08;;;;;;;4.90;1.40;;;28.20;35.90;;;;;;5033578;28;20037;-70
2022/06/15 12:30:49;;;;;;;6.23;1.90;;;28.10;36.00;;;;;;5045136;28;20064;-70
2022/06/15 12:33:59;;;;;;;5.25;1.65;;;28.00;35.90;;;;;;5046412;28;20040;-70
2022/06/15 12:36:41;;;;;;;5.53;1.40;;;27.90;36.00;;;;;;5003944;28;20146;-70
2022/06/15 12:39:28;;;;;;;3.55;1.23;;;27.80;36.10;;;;;;4997273;28;20042;-70
2022/06/15 12:42:09;;;;;;;4.80;1.45;;;27.70;36.30;;;;;;5033107;28;20061;-70
2022/06/15 12:44:38;;;;;;;5.72;1.42;;;27.70;36.50;;;;;;5016078;28;20041;-70
2022/06/15 12:47:10;;;;;;;5.00;1.88;;;27.60;36.70;;;;;;5030721;28;20045;-70
2022/06/15 12:49:49;;;;;;;4.47;1.63;;;27.60;36.50;;;;;;5014391;28;20048;-70
2022/06/15 12:52:26;;;;;;;4.65;1.38;;;27.50;36.50;;;;;;5017239;28;20037;-70
2022/06/15 12:55:29;;;;;;;4.10;1.58;;;27.40;36.60;;;;;;5033790;28;20060;-71
2022/06/15 12:58:07;;;;;;;6.18;1.42;;;27.40;36.70;;;;;;5016245;28;20025;-70
2022/06/15 13:00:43;;;;;;;4.15;1.52;;;27.30;36.90;;;;;;4989696;28;20045;-70
2022/06/15 13:03:20;;;;;;;4.22;1.42;;;27.20;36.80;;;;;;5020216;28;20029;-71
2022/06/15 13:05:46;;;;;;;3.70;1.48;;;27.10;36.80;;;;;;5001531;28;20029;-71
2022/06/15 13:08:12;;;;;;;3.80;1.40;;;27.00;36.70;;;;;;5023864;28;20033;-66
2022/06/15 13:10:52;;;;;;;3.55;1.40;;;27.00;36.60;;;;;;5042219;28;20021;-66
2022/06/15 13:13:24;;;;;;;2.72;1.33;;;26.90;36.80;;;;;;5040854;28;20050;-66
2022/06/15 13:16:07;;;;;;;2.58;1.30;;;26.90;36.80;;;;;;5044966;28;20040;-66
2022/06/15 13:18:46;;;;;;;4.75;1.73;;;26.90;36.60;;;;;;5047853;28;20036;-66
2022/06/15 13:21:15;;;;;;;3.40;1.60;;;26.80;36.50;;;;;;5045569;28;20467;-67
2022/06/15 13:23:47;;;;;;;4.82;1.48;;;26.70;36.70;;;;;;5039438;28;20061;-65
2022/06/15 13:26:20;;;;;;;4.18;1.52;;;26.60;36.80;;;;;;5051262;28;20035;-65
2022/06/15 13:29:01;;;;;;;4.43;1.52;;;26.50;37.00;;;;;;5035234;28;20358;-66
2022/06/15 13:31:47;;;;;;;4.35;1.73;;;26.50;37.20;;;;;;5019325;28;20040;-72
2022/06/15 13:34:32;;;;;;;3.72;1.40;;;26.50;37.40;;;;;;5041056;28;20047;-72